sensor_id;sensor_type;location;lat;lon;timestamp;temperature;humidity
6764;DHT22;47432;48.760;9.178;2023-04-24T00:00:57;11.00;99.90
6764;DHT22;47432;48.760;9.178;2023-04-24T00:03:24;11.10;99.90
6764;DHT22;47432;48.760;9.178;2023-04-24T00:05:50;11.10;99.90
6764;DHT22;47432;48.760;9.178;2023-04-24T00:08:16;11.20;99.90
6764;DHT22;47432;48.760;9.178;2023-04-24T00:10:42;11.20;99.90
6764;DHT22;47432;48.760;9.178;2023-04-24T00:13:08;11.10;99.90
6764;DHT22;47432;48.760;9.178;2023-04-24T00:15:34;11.20;99.90
6764;DHT22;47432;48.760;9.178;2023-04-24T00:18:00;11.20;99.90
6764;DHT22;47432;48.760;9.178;2023-04-24T00:20:27;11.20;99.90
6764;DHT22;47432;48.760;9.178;2023-04-24T00:22:57;11.20;99.90
6764;DHT22;47432;48.760;9.178;2023-04-24T00:25:23;11.20;99.90
6764;DHT22;47432;48.760;9.178;2023-04-24T00:27:49;11.20;99.90
6764;DHT22;47432;48.760;9.178;2023-04-24T00:30:15;11.30;99.90
6764;DHT22;47432;48.760;9.178;2023-04-24T00:32:41;11.30;99.90
6764;DHT22;47432;48.760;9.178;2023-04-24T00:35:07;11.30;99.90
6764;DHT22;47432;48.760;9.178;2023-04-24T00:37:33;11.40;99.90
6764;DHT22;47432;48.760;9.178;2023-04-24T00:39:58;11.40;99.90
6764;DHT22;47432;48.760;9.178;2023-04-24T00:42:24;11.40;99.90
6764;DHT22;47432;48.760;9.178;2023-04-24T00:44:51;11.40;99.90
6764;DHT22;47432;48.760;9.178;2023-04-24T00:47:17;11.50;99.90
6764;DHT22;47432;48.760;9.178;2023-04-24T00:49:44;11.50;99.90
6764;DHT22;47432;48.760;9.178;2023-04-24T00:52:10;11.50;99.90
6764;DHT22;47432;48.760;9.178;2023-04-24T00:54:36;11.50;99.90
6764;DHT22;47432;48.760;9.178;2023-04-24T00:57:03;11.50;99.90
6764;DHT22;47432;48.760;9.178;2023-04-24T00:59:30;11.50;99.90
6764;DHT22;47432;48.760;9.178;2023-04-24T01:01:57;11.50;99.90
6764;DHT22;47432;48.760;9.178;2023-04-24T01:04:24;11.60;99.90
6764;DHT22;47432;48.760;9.178;2023-04-24T01:06:51;11.60;99.90
6764;DHT22;47432;48.760;9.178;2023-04-24T01:09:18;11.50;99.90
6764;DHT22;47432;48.760;9.178;2023-04-24T01:11:44;11.60;99.90
6764;DHT22;47432;48.760;9.178;2023-04-24T01:14:10;11.60;99.90
6764;DHT22;47432;48.760;9.178;2023-04-24T01:16:38;11.60;99.90
6764;DHT22;47432;48.760;9.178;2023-04-24T01:19:06;11.60;99.90
6764;DHT22;47432;48.760;9.178;2023-04-24T01:21:34;11.50;99.90
6764;DHT22;47432;48.760;9.178;2023-04-24T01:24:02;11.60;99.90
6764;DHT22;47432;48.760;9.178;2023-04-24T01:26:29;11.60;99.90
6764;DHT22;47432;48.760;9.178;2023-04-24T01:28:55;11.60;99.90
6764;DHT22;47432;48.760;9.178;2023-04-24T01:31:21;11.70;99.90
6764;DHT22;47432;48.760;9.178;2023-04-24T01:33:48;11.60;99.90
6764;DHT22;47432;48.760;9.178;2023-04-24T01:36:16;11.60;99.90
6764;DHT22;47432;48.760;9.178;2023-04-24T01:38:42;11.60;99.90
6764;DHT22;47432;48.760;9.178;2023-04-24T01:41:09;11.50;99.90
6764;DHT22;47432;48.760;9.178;2023-04-24T01:43:35;11.40;99.90
6764;DHT22;47432;48.760;9.178;2023-04-24T01:46:01;11.30;99.90
6764;DHT22;47432;48.760;9.178;2023-04-24T01:48:27;9.70;99.90
6764;DHT22;47432;48.760;9.178;2023-04-24T01:50:53;11.20;99.90
6764;DHT22;47432;48.760;9.178;2023-04-24T01:53:19;11.30;99.90
6764;DHT22;47432;48.760;9.178;2023-04-24T01:55:45;11.30;99.90
6764;DHT22;47432;48.760;9.178;2023-04-24T01:58:11;11.20;99.90
6764;DHT22;47432;48.760;9.178;2023-04-24T02:00:37;11.10;99.90
6764;DHT22;47432;48.760;9.178;2023-04-24T02:03:02;11.00;99.90
6764;DHT22;47432;48.760;9.178;2023-04-24T02:05:28;11.00;99.90
6764;DHT22;47432;48.760;9.178;2023-04-24T02:07:54;11.00;99.90
6764;DHT22;47432;48.760;9.178;2023-04-24T02:10:20;10.90;99.90
6764;DHT22;47432;48.760;9.178;2023-04-24T02:12:46;10.90;99.90
6764;DHT22;47432;48.760;9.178;2023-04-24T02:15:11;10.80;99.90
6764;DHT22;47432;48.760;9.178;2023-04-24T02:17:37;10.80;99.90
6764;DHT22;47432;48.760;9.178;2023-04-24T02:20:04;10.90;99.90
6764;DHT22;47432;48.760;9.178;2023-04-24T02:22:31;10.90;99.90
6764;DHT22;47432;48.760;9.178;2023-04-24T02:24:57;10.90;99.90
6764;DHT22;47432;48.760;9.178;2023-04-24T02:27:23;10.90;99.90
6764;DHT22;47432;48.760;9.178;2023-04-24T02:29:48;10.90;99.90
6764;DHT22;47432;48.760;9.178;2023-04-24T02:32:16;10.80;99.90
6764;DHT22;47432;48.760;9.178;2023-04-24T02:34:42;10.80;99.90
6764;DHT22;47432;48.760;9.178;2023-04-24T02:37:12;10.80;99.90
6764;DHT22;47432;48.760;9.178;2023-04-24T02:39:38;10.90;99.90
6764;DHT22;47432;48.760;9.178;2023-04-24T02:42:03;10.90;99.90
6764;DHT22;47432;48.760;9.178;2023-04-24T02:44:29;10.90;99.90
6764;DHT22;47432;48.760;9.178;2023-04-24T02:46:55;10.90;99.90
6764;DHT22;47432;48.760;9.178;2023-04-24T02:49:21;10.90;99.90
6764;DHT22;47432;48.760;9.178;2023-04-24T02:51:47;11.00;99.90
6764;DHT22;47432;48.760;9.178;2023-04-24T02:54:12;11.00;99.90
6764;DHT22;47432;48.760;9.178;2023-04-24T02:56:38;11.00;99.90
6764;DHT22;47432;48.760;9.178;2023-04-24T02:59:04;11.00;99.90
6764;DHT22;47432;48.760;9.178;2023-04-24T03:01:30;10.90;99.90
6764;DHT22;47432;48.760;9.178;2023-04-24T03:03:56;11.00;99.90
6764;DHT22;47432;48.760;9.178;2023-04-24T03:06:21;10.90;99.90
6764;DHT22;47432;48.760;9.178;2023-04-24T03:08:47;10.80;99.90
6764;DHT22;47432;48.760;9.178;2023-04-24T03:11:13;10.80;99.90
6764;DHT22;47432;48.760;9.178;2023-04-24T03:13:38;10.70;99.90
6764;DHT22;47432;48.760;9.178;2023-04-24T03:16:05;10.60;99.90
6764;DHT22;47432;48.760;9.178;2023-04-24T03:18:31;10.60;99.90
6764;DHT22;47432;48.760;9.178;2023-04-24T03:20:59;10.50;99.90
6764;DHT22;47432;48.760;9.178;2023-04-24T03:23:24;10.50;99.90
6764;DHT22;47432;48.760;9.178;2023-04-24T03:25:50;10.40;99.90
6764;DHT22;47432;48.760;9.178;2023-04-24T03:28:16;10.30;99.90
6764;DHT22;47432;48.760;9.178;2023-04-24T03:30:42;10.30;99.90
6764;DHT22;47432;48.760;9.178;2023-04-24T03:33:07;10.30;99.90
6764;DHT22;47432;48.760;9.178;2023-04-24T03:35:33;10.20;99.90
6764;DHT22;47432;48.760;9.178;2023-04-24T03:37:59;10.20;99.90
6764;DHT22;47432;48.760;9.178;2023-04-24T03:40:29;10.20;99.90
6764;DHT22;47432;48.760;9.178;2023-04-24T03:42:55;10.20;99.90
6764;DHT22;47432;48.760;9.178;2023-04-24T03:45:21;10.20;99.90
6764;DHT22;47432;48.760;9.178;2023-04-24T03:47:47;10.20;99.90
6764;DHT22;47432;48.760;9.178;2023-04-24T03:50:12;10.20;99.90
6764;DHT22;47432;48.760;9.178;2023-04-24T03:52:38;10.20;99.90
6764;DHT22;47432;48.760;9.178;2023-04-24T03:55:04;10.20;99.90
6764;DHT22;47432;48.760;9.178;2023-04-24T03:57:31;10.10;99.90
6764;DHT22;47432;48.760;9.178;2023-04-24T03:59:57;10.10;99.90
6764;DHT22;47432;48.760;9.178;2023-04-24T04:02:23;10.00;99.90
6764;DHT22;47432;48.760;9.178;2023-04-24T04:04:48;10.00;99.90
6764;DHT22;47432;48.760;9.178;2023-04-24T04:07:14;10.00;99.90
6764;DHT22;47432;48.760;9.178;2023-04-24T04:09:40;10.00;99.90
6764;DHT22;47432;48.760;9.178;2023-04-24T04:12:06;9.90;99.90
6764;DHT22;47432;48.760;9.178;2023-04-24T04:14:33;10.00;99.90
6764;DHT22;47432;48.760;9.178;2023-04-24T04:16:59;10.10;99.90
6764;DHT22;47432;48.760;9.178;2023-04-24T04:19:25;10.10;99.90
6764;DHT22;47432;48.760;9.178;2023-04-24T04:21:51;10.20;99.90
6764;DHT22;47432;48.760;9.178;2023-04-24T04:24:19;10.30;99.90
6764;DHT22;47432;48.760;9.178;2023-04-24T04:26:46;10.40;99.90
6764;DHT22;47432;48.760;9.178;2023-04-24T04:29:13;10.40;99.90
6764;DHT22;47432;48.760;9.178;2023-04-24T04:31:39;10.40;99.90
6764;DHT22;47432;48.760;9.178;2023-04-24T04:34:05;10.50;99.90
6764;DHT22;47432;48.760;9.178;2023-04-24T04:36:31;10.20;99.90
6764;DHT22;47432;48.760;9.178;2023-04-24T04:38:59;10.10;99.90
6764;DHT22;47432;48.760;9.178;2023-04-24T04:41:24;10.20;99.90
6764;DHT22;47432;48.760;9.178;2023-04-24T04:43:50;10.10;99.90
6764;DHT22;47432;48.760;9.178;2023-04-24T04:46:16;10.00;99.90
6764;DHT22;47432;48.760;9.178;2023-04-24T04:48:42;10.00;99.90
6764;DHT22;47432;48.760;9.178;2023-04-24T04:51:08;10.00;99.90
6764;DHT22;47432;48.760;9.178;2023-04-24T04:53:34;10.10;99.90
6764;DHT22;47432;48.760;9.178;2023-04-24T04:56:00;10.00;99.90
6764;DHT22;47432;48.760;9.178;2023-04-24T04:58:26;9.90;99.90
6764;DHT22;47432;48.760;9.178;2023-04-24T05:00:51;9.90;99.90
6764;DHT22;47432;48.760;9.178;2023-04-24T05:03:19;10.00;99.90
6764;DHT22;47432;48.760;9.178;2023-04-24T05:05:47;9.90;99.90
6764;DHT22;47432;48.760;9.178;2023-04-24T05:08:13;10.00;99.90
6764;DHT22;47432;48.760;9.178;2023-04-24T05:10:39;9.90;99.90
6764;DHT22;47432;48.760;9.178;2023-04-24T05:13:07;9.90;99.90
6764;DHT22;47432;48.760;9.178;2023-04-24T05:15:33;9.90;99.90
6764;DHT22;47432;48.760;9.178;2023-04-24T05:17:59;9.90;99.90
6764;DHT22;47432;48.760;9.178;2023-04-24T05:20:25;9.90;99.90
6764;DHT22;47432;48.760;9.178;2023-04-24T05:22:51;9.90;99.90
6764;DHT22;47432;48.760;9.178;2023-04-24T05:25:16;9.90;99.90
6764;DHT22;47432;48.760;9.178;2023-04-24T05:27:42;10.00;99.90
6764;DHT22;47432;48.760;9.178;2023-04-24T05:30:08;10.00;99.90
6764;DHT22;47432;48.760;9.178;2023-04-24T05:32:34;10.10;99.90
6764;DHT22;47432;48.760;9.178;2023-04-24T05:35:00;10.00;99.90
6764;DHT22;47432;48.760;9.178;2023-04-24T05:37:26;10.00;99.90
6764;DHT22;47432;48.760;9.178;2023-04-24T05:39:52;10.20;99.90
6764;DHT22;47432;48.760;9.178;2023-04-24T05:42:18;10.30;99.90
6764;DHT22;47432;48.760;9.178;2023-04-24T05:44:44;10.20;99.90
6764;DHT22;47432;48.760;9.178;2023-04-24T05:47:09;10.10;99.90
6764;DHT22;47432;48.760;9.178;2023-04-24T05:49:35;10.10;99.90
6764;DHT22;47432;48.760;9.178;2023-04-24T05:52:03;10.10;99.90
6764;DHT22;47432;48.760;9.178;2023-04-24T05:54:30;10.10;99.90
6764;DHT22;47432;48.760;9.178;2023-04-24T05:56:56;10.10;99.90
6764;DHT22;47432;48.760;9.178;2023-04-24T05:59:22;10.10;99.90
6764;DHT22;47432;48.760;9.178;2023-04-24T06:01:48;10.10;99.90
6764;DHT22;47432;48.760;9.178;2023-04-24T06:04:13;10.10;99.90
6764;DHT22;47432;48.760;9.178;2023-04-24T06:06:39;10.10;99.90
6764;DHT22;47432;48.760;9.178;2023-04-24T06:09:05;10.00;99.90
6764;DHT22;47432;48.760;9.178;2023-04-24T06:11:32;10.00;99.90
6764;DHT22;47432;48.760;9.178;2023-04-24T06:14:00;9.90;99.90
6764;DHT22;47432;48.760;9.178;2023-04-24T06:16:26;10.10;99.90
6764;DHT22;47432;48.760;9.178;2023-04-24T06:18:51;10.00;99.90
6764;DHT22;47432;48.760;9.178;2023-04-24T06:21:17;10.20;99.90
6764;DHT22;47432;48.760;9.178;2023-04-24T06:23:43;10.30;99.90
6764;DHT22;47432;48.760;9.178;2023-04-24T06:26:08;10.30;99.90
6764;DHT22;47432;48.760;9.178;2023-04-24T06:28:34;10.40;99.90
6764;DHT22;47432;48.760;9.178;2023-04-24T06:31:00;10.60;99.90
6764;DHT22;47432;48.760;9.178;2023-04-24T06:33:26;10.80;99.90
6764;DHT22;47432;48.760;9.178;2023-04-24T06:35:51;11.10;99.90
6764;DHT22;47432;48.760;9.178;2023-04-24T06:38:17;11.20;99.90
6764;DHT22;47432;48.760;9.178;2023-04-24T06:40:43;11.20;99.90
6764;DHT22;47432;48.760;9.178;2023-04-24T06:43:09;11.40;99.90
6764;DHT22;47432;48.760;9.178;2023-04-24T06:45:36;11.60;99.90
6764;DHT22;47432;48.760;9.178;2023-04-24T06:48:04;11.80;99.90
6764;DHT22;47432;48.760;9.178;2023-04-24T06:50:32;11.90;99.90
6764;DHT22;47432;48.760;9.178;2023-04-24T06:52:58;12.00;99.90
6764;DHT22;47432;48.760;9.178;2023-04-24T06:55:26;12.00;99.90
6764;DHT22;47432;48.760;9.178;2023-04-24T06:57:54;11.80;99.90
6764;DHT22;47432;48.760;9.178;2023-04-24T07:00:20;11.80;99.90
6764;DHT22;47432;48.760;9.178;2023-04-24T07:02:46;11.90;99.90
6764;DHT22;47432;48.760;9.178;2023-04-24T07:05:12;12.00;99.90
6764;DHT22;47432;48.760;9.178;2023-04-24T07:07:38;12.10;99.90
6764;DHT22;47432;48.760;9.178;2023-04-24T07:10:05;12.30;99.90
6764;DHT22;47432;48.760;9.178;2023-04-24T07:12:31;12.30;99.90
6764;DHT22;47432;48.760;9.178;2023-04-24T07:14:58;12.50;99.90
6764;DHT22;47432;48.760;9.178;2023-04-24T07:17:23;12.40;99.90
6764;DHT22;47432;48.760;9.178;2023-04-24T07:19:49;12.20;99.90
6764;DHT22;47432;48.760;9.178;2023-04-24T07:22:15;12.20;99.90
6764;DHT22;47432;48.760;9.178;2023-04-24T07:24:43;12.20;99.90
6764;DHT22;47432;48.760;9.178;2023-04-24T07:27:09;12.10;99.90
6764;DHT22;47432;48.760;9.178;2023-04-24T07:29:35;11.80;99.90
6764;DHT22;47432;48.760;9.178;2023-04-24T07:32:01;11.80;99.90
6764;DHT22;47432;48.760;9.178;2023-04-24T07:34:27;11.90;99.90
6764;DHT22;47432;48.760;9.178;2023-04-24T07:36:52;12.00;99.90
6764;DHT22;47432;48.760;9.178;2023-04-24T07:39:18;11.90;99.90
6764;DHT22;47432;48.760;9.178;2023-04-24T07:41:44;12.00;99.90
6764;DHT22;47432;48.760;9.178;2023-04-24T07:44:10;12.00;99.90
6764;DHT22;47432;48.760;9.178;2023-04-24T07:46:35;12.20;99.90
6764;DHT22;47432;48.760;9.178;2023-04-24T07:49:04;12.60;99.90
6764;DHT22;47432;48.760;9.178;2023-04-24T07:51:30;12.60;99.90
6764;DHT22;47432;48.760;9.178;2023-04-24T07:53:57;13.50;99.90
6764;DHT22;47432;48.760;9.178;2023-04-24T07:56:23;12.70;99.90
6764;DHT22;47432;48.760;9.178;2023-04-24T07:58:49;12.40;99.90
6764;DHT22;47432;48.760;9.178;2023-04-24T08:01:15;12.20;99.90
6764;DHT22;47432;48.760;9.178;2023-04-24T08:03:40;12.40;99.90
6764;DHT22;47432;48.760;9.178;2023-04-24T08:06:06;12.40;99.90
6764;DHT22;47432;48.760;9.178;2023-04-24T08:08:32;12.30;99.90
6764;DHT22;47432;48.760;9.178;2023-04-24T08:11:00;12.20;99.90
6764;DHT22;47432;48.760;9.178;2023-04-24T08:13:26;12.20;99.90
6764;DHT22;47432;48.760;9.178;2023-04-24T08:15:51;12.10;99.90
6764;DHT22;47432;48.760;9.178;2023-04-24T08:18:17;12.10;99.90
6764;DHT22;47432;48.760;9.178;2023-04-24T08:20:43;12.10;99.90
6764;DHT22;47432;48.760;9.178;2023-04-24T08:23:10;12.10;99.90
6764;DHT22;47432;48.760;9.178;2023-04-24T08:25:36;12.20;99.90
6764;DHT22;47432;48.760;9.178;2023-04-24T08:28:03;12.00;99.90
6764;DHT22;47432;48.760;9.178;2023-04-24T08:30:31;12.20;99.90
6764;DHT22;47432;48.760;9.178;2023-04-24T08:32:57;12.30;99.90
6764;DHT22;47432;48.760;9.178;2023-04-24T08:35:23;12.50;99.90
6764;DHT22;47432;48.760;9.178;2023-04-24T08:37:49;13.20;99.90
6764;DHT22;47432;48.760;9.178;2023-04-24T08:40:16;13.20;99.90
6764;DHT22;47432;48.760;9.178;2023-04-24T08:42:45;13.30;99.90
6764;DHT22;47432;48.760;9.178;2023-04-24T08:45:12;13.20;99.90
6764;DHT22;47432;48.760;9.178;2023-04-24T08:47:39;13.10;99.90
6764;DHT22;47432;48.760;9.178;2023-04-24T08:50:07;12.70;99.90
6764;DHT22;47432;48.760;9.178;2023-04-24T08:52:34;12.20;99.90
6764;DHT22;47432;48.760;9.178;2023-04-24T08:55:01;12.20;99.90
6764;DHT22;47432;48.760;9.178;2023-04-24T08:57:28;12.10;99.90
6764;DHT22;47432;48.760;9.178;2023-04-24T08:59:55;12.40;99.90
6764;DHT22;47432;48.760;9.178;2023-04-24T09:02:22;12.80;99.90
6764;DHT22;47432;48.760;9.178;2023-04-24T09:04:51;12.70;99.90
6764;DHT22;47432;48.760;9.178;2023-04-24T09:07:19;12.80;99.90
6764;DHT22;47432;48.760;9.178;2023-04-24T09:09:45;12.50;99.90
6764;DHT22;47432;48.760;9.178;2023-04-24T09:12:11;12.50;99.90
6764;DHT22;47432;48.760;9.178;2023-04-24T09:14:38;12.20;99.90
6764;DHT22;47432;48.760;9.178;2023-04-24T09:17:08;12.30;99.90
6764;DHT22;47432;48.760;9.178;2023-04-24T09:19:33;11.80;99.90
6764;DHT22;47432;48.760;9.178;2023-04-24T09:21:59;11.70;99.90
6764;DHT22;47432;48.760;9.178;2023-04-24T09:24:25;11.80;99.90
6764;DHT22;47432;48.760;9.178;2023-04-24T09:26:58;11.80;99.90
6764;DHT22;47432;48.760;9.178;2023-04-24T09:29:25;11.50;99.90
6764;DHT22;47432;48.760;9.178;2023-04-24T09:31:50;11.50;99.90
6764;DHT22;47432;48.760;9.178;2023-04-24T09:34:25;11.20;99.90
6764;DHT22;47432;48.760;9.178;2023-04-24T09:36:52;11.10;99.90
6764;DHT22;47432;48.760;9.178;2023-04-24T09:39:18;11.40;99.90
6764;DHT22;47432;48.760;9.178;2023-04-24T09:41:55;11.40;99.90
6764;DHT22;47432;48.760;9.178;2023-04-24T09:44:26;11.60;99.90
6764;DHT22;47432;48.760;9.178;2023-04-24T09:46:59;11.80;99.90
6764;DHT22;47432;48.760;9.178;2023-04-24T09:49:30;12.30;99.90
6764;DHT22;47432;48.760;9.178;2023-04-24T09:52:06;12.50;99.90
6764;DHT22;47432;48.760;9.178;2023-04-24T09:54:33;12.60;99.90
6764;DHT22;47432;48.760;9.178;2023-04-24T09:56:59;12.40;99.90
6764;DHT22;47432;48.760;9.178;2023-04-24T09:59:25;12.20;99.90
6764;DHT22;47432;48.760;9.178;2023-04-24T10:01:51;12.00;99.90
6764;DHT22;47432;48.760;9.178;2023-04-24T10:04:28;11.80;99.90
6764;DHT22;47432;48.760;9.178;2023-04-24T10:06:56;11.80;99.90
6764;DHT22;47432;48.760;9.178;2023-04-24T10:09:25;12.00;99.90
6764;DHT22;47432;48.760;9.178;2023-04-24T10:11:54;12.00;99.90
6764;DHT22;47432;48.760;9.178;2023-04-24T10:14:24;12.00;99.90
6764;DHT22;47432;48.760;9.178;2023-04-24T10:16:53;11.90;99.90
6764;DHT22;47432;48.760;9.178;2023-04-24T10:19:22;12.40;99.90
6764;DHT22;47432;48.760;9.178;2023-04-24T10:21:53;12.40;99.90
6764;DHT22;47432;48.760;9.178;2023-04-24T10:24:21;12.40;99.90
6764;DHT22;47432;48.760;9.178;2023-04-24T10:29:16;12.50;99.90
6764;DHT22;47432;48.760;9.178;2023-04-24T10:31:44;12.50;99.90
6764;DHT22;47432;48.760;9.178;2023-04-24T10:34:15;12.90;99.90
6764;DHT22;47432;48.760;9.178;2023-04-24T10:36:46;13.50;99.90
6764;DHT22;47432;48.760;9.178;2023-04-24T10:39:14;13.00;99.90
6764;DHT22;47432;48.760;9.178;2023-04-24T10:41:41;12.70;99.90
6764;DHT22;47432;48.760;9.178;2023-04-24T10:44:14;12.70;99.90
6764;DHT22;47432;48.760;9.178;2023-04-24T10:46:47;12.60;99.90
6764;DHT22;47432;48.760;9.178;2023-04-24T10:49:31;12.50;99.90
6764;DHT22;47432;48.760;9.178;2023-04-24T10:52:02;12.50;99.90
6764;DHT22;47432;48.760;9.178;2023-04-24T10:54:42;12.40;99.90
6764;DHT22;47432;48.760;9.178;2023-04-24T10:59:52;12.50;99.90
6764;DHT22;47432;48.760;9.178;2023-04-24T11:02:41;12.50;99.90
6764;DHT22;47432;48.760;9.178;2023-04-24T11:05:18;12.30;99.90
6764;DHT22;47432;48.760;9.178;2023-04-24T11:08:21;12.10;99.90
6764;DHT22;47432;48.760;9.178;2023-04-24T11:11:11;12.10;99.90
6764;DHT22;47432;48.760;9.178;2023-04-24T11:19:24;12.10;99.90
6764;DHT22;47432;48.760;9.178;2023-04-24T11:22:04;12.30;99.90
6764;DHT22;47432;48.760;9.178;2023-04-24T11:24:49;12.30;99.90
6764;DHT22;47432;48.760;9.178;2023-04-24T11:27:20;12.50;99.90
6764;DHT22;47432;48.760;9.178;2023-04-24T11:30:00;13.40;99.90
6764;DHT22;47432;48.760;9.178;2023-04-24T11:32:38;13.30;99.90
6764;DHT22;47432;48.760;9.178;2023-04-24T11:35:23;13.50;99.90
6764;DHT22;47432;48.760;9.178;2023-04-24T11:37:54;13.80;99.90
6764;DHT22;47432;48.760;9.178;2023-04-24T11:40:23;13.50;99.90
6764;DHT22;47432;48.760;9.178;2023-04-24T11:42:52;13.10;99.90
6764;DHT22;47432;48.760;9.178;2023-04-24T11:45:25;13.10;99.90
6764;DHT22;47432;48.760;9.178;2023-04-24T11:47:54;12.60;99.90
6764;DHT22;47432;48.760;9.178;2023-04-24T11:50:25;12.60;99.90
6764;DHT22;47432;48.760;9.178;2023-04-24T11:52:57;12.80;99.90
6764;DHT22;47432;48.760;9.178;2023-04-24T11:55:24;12.90;99.90
6764;DHT22;47432;48.760;9.178;2023-04-24T11:57:58;12.90;99.90
6764;DHT22;47432;48.760;9.178;2023-04-24T12:00:29;13.10;99.90
6764;DHT22;47432;48.760;9.178;2023-04-24T12:03:10;13.30;99.90
6764;DHT22;47432;48.760;9.178;2023-04-24T12:05:37;13.90;99.90
6764;DHT22;47432;48.760;9.178;2023-04-24T12:08:04;13.80;99.90
6764;DHT22;47432;48.760;9.178;2023-04-24T12:10:31;13.80;99.90
6764;DHT22;47432;48.760;9.178;2023-04-24T12:12:58;14.60;99.90
6764;DHT22;47432;48.760;9.178;2023-04-24T12:15:25;14.60;99.90
6764;DHT22;47432;48.760;9.178;2023-04-24T12:17:52;14.00;99.90
6764;DHT22;47432;48.760;9.178;2023-04-24T12:20:27;13.50;99.90
6764;DHT22;47432;48.760;9.178;2023-04-24T12:22:56;13.50;99.90
6764;DHT22;47432;48.760;9.178;2023-04-24T12:25:31;13.30;99.90
6764;DHT22;47432;48.760;9.178;2023-04-24T12:30:33;13.20;99.90
6764;DHT22;47432;48.760;9.178;2023-04-24T12:33:06;13.50;99.90
6764;DHT22;47432;48.760;9.178;2023-04-24T12:35:32;13.30;99.90
6764;DHT22;47432;48.760;9.178;2023-04-24T12:38:15;13.40;99.90
6764;DHT22;47432;48.760;9.178;2023-04-24T12:40:42;13.70;99.90
6764;DHT22;47432;48.760;9.178;2023-04-24T12:43:16;12.90;99.90
6764;DHT22;47432;48.760;9.178;2023-04-24T12:45:43;12.80;99.90
6764;DHT22;47432;48.760;9.178;2023-04-24T12:48:10;13.60;99.90
6764;DHT22;47432;48.760;9.178;2023-04-24T12:50:36;13.40;99.90
6764;DHT22;47432;48.760;9.178;2023-04-24T12:53:02;13.60;99.90
6764;DHT22;47432;48.760;9.178;2023-04-24T12:55:27;13.10;99.90
6764;DHT22;47432;48.760;9.178;2023-04-24T12:57:53;12.70;99.90
6764;DHT22;47432;48.760;9.178;2023-04-24T13:02:46;12.60;99.90
6764;DHT22;47432;48.760;9.178;2023-04-24T13:05:12;12.40;99.90
6764;DHT22;47432;48.760;9.178;2023-04-24T13:07:39;12.40;99.90
6764;DHT22;47432;48.760;9.178;2023-04-24T13:10:05;11.90;99.90
6764;DHT22;47432;48.760;9.178;2023-04-24T13:12:32;11.70;99.90
6764;DHT22;47432;48.760;9.178;2023-04-24T13:14:58;11.60;99.90
6764;DHT22;47432;48.760;9.178;2023-04-24T13:17:24;11.60;99.90
6764;DHT22;47432;48.760;9.178;2023-04-24T13:19:51;12.00;99.90
6764;DHT22;47432;48.760;9.178;2023-04-24T13:22:17;12.50;99.90
6764;DHT22;47432;48.760;9.178;2023-04-24T13:24:46;13.70;99.90
6764;DHT22;47432;48.760;9.178;2023-04-24T13:27:17;14.10;99.90
6764;DHT22;47432;48.760;9.178;2023-04-24T13:29:43;14.10;99.90
6764;DHT22;47432;48.760;9.178;2023-04-24T13:32:09;14.90;99.90
6764;DHT22;47432;48.760;9.178;2023-04-24T13:34:35;14.10;99.90
6764;DHT22;47432;48.760;9.178;2023-04-24T13:37:02;14.10;99.90
6764;DHT22;47432;48.760;9.178;2023-04-24T13:39:31;13.70;99.90
6764;DHT22;47432;48.760;9.178;2023-04-24T13:41:58;12.80;99.90
6764;DHT22;47432;48.760;9.178;2023-04-24T13:44:24;12.70;99.90
6764;DHT22;47432;48.760;9.178;2023-04-24T13:46:52;10.60;99.90
6764;DHT22;47432;48.760;9.178;2023-04-24T13:49:20;12.20;99.90
6764;DHT22;47432;48.760;9.178;2023-04-24T13:51:47;11.00;99.90
6764;DHT22;47432;48.760;9.178;2023-04-24T13:54:15;11.00;99.90
6764;DHT22;47432;48.760;9.178;2023-04-24T13:56:43;10.70;99.90
6764;DHT22;47432;48.760;9.178;2023-04-24T13:59:09;10.30;99.90
6764;DHT22;47432;48.760;9.178;2023-04-24T14:01:37;10.30;99.90
6764;DHT22;47432;48.760;9.178;2023-04-24T14:04:03;10.60;99.90
6764;DHT22;47432;48.760;9.178;2023-04-24T14:06:28;11.00;99.90
6764;DHT22;47432;48.760;9.178;2023-04-24T14:08:54;12.70;99.90
6764;DHT22;47432;48.760;9.178;2023-04-24T14:11:20;14.50;99.90
6764;DHT22;47432;48.760;9.178;2023-04-24T14:13:47;15.00;99.90
6764;DHT22;47432;48.760;9.178;2023-04-24T14:16:15;11.30;99.90
6764;DHT22;47432;48.760;9.178;2023-04-24T14:18:41;13.80;99.90
6764;DHT22;47432;48.760;9.178;2023-04-24T14:21:07;13.60;99.90
6764;DHT22;47432;48.760;9.178;2023-04-24T14:23:33;13.50;99.90
6764;DHT22;47432;48.760;9.178;2023-04-24T14:26:01;12.80;99.90
6764;DHT22;47432;48.760;9.178;2023-04-24T14:28:27;12.70;99.90
6764;DHT22;47432;48.760;9.178;2023-04-24T14:30:56;12.30;99.90
6764;DHT22;47432;48.760;9.178;2023-04-24T14:33:21;11.60;99.90
6764;DHT22;47432;48.760;9.178;2023-04-24T14:35:47;11.60;99.90
6764;DHT22;47432;48.760;9.178;2023-04-24T14:38:14;12.80;99.90
6764;DHT22;47432;48.760;9.178;2023-04-24T14:40:40;14.70;99.90
6764;DHT22;47432;48.760;9.178;2023-04-24T14:43:06;16.30;99.90
6764;DHT22;47432;48.760;9.178;2023-04-24T14:45:32;18.10;99.90
6764;DHT22;47432;48.760;9.178;2023-04-24T14:47:58;17.70;99.90
6764;DHT22;47432;48.760;9.178;2023-04-24T14:50:24;16.40;99.90
6764;DHT22;47432;48.760;9.178;2023-04-24T14:52:55;15.60;99.90
6764;DHT22;47432;48.760;9.178;2023-04-24T14:55:25;14.80;99.90
6764;DHT22;47432;48.760;9.178;2023-04-24T14:57:51;14.10;99.90
6764;DHT22;47432;48.760;9.178;2023-04-24T15:00:21;14.00;99.90
6764;DHT22;47432;48.760;9.178;2023-04-24T15:02:48;14.10;99.90
6764;DHT22;47432;48.760;9.178;2023-04-24T15:05:14;15.30;99.90
6764;DHT22;47432;48.760;9.178;2023-04-24T15:07:40;15.80;99.90
6764;DHT22;47432;48.760;9.178;2023-04-24T15:10:09;15.80;99.90
6764;DHT22;47432;48.760;9.178;2023-04-24T15:12:35;15.10;99.90
6764;DHT22;47432;48.760;9.178;2023-04-24T15:15:03;13.50;99.90
6764;DHT22;47432;48.760;9.178;2023-04-24T15:17:30;13.50;99.90
6764;DHT22;47432;48.760;9.178;2023-04-24T15:19:55;12.80;99.90
6764;DHT22;47432;48.760;9.178;2023-04-24T15:22:21;12.70;99.90
6764;DHT22;47432;48.760;9.178;2023-04-24T15:24:49;12.60;99.90
6764;DHT22;47432;48.760;9.178;2023-04-24T15:27:15;12.20;99.90
6764;DHT22;47432;48.760;9.178;2023-04-24T15:29:41;12.10;99.90
6764;DHT22;47432;48.760;9.178;2023-04-24T15:32:07;12.10;99.90
6764;DHT22;47432;48.760;9.178;2023-04-24T15:34:35;12.10;99.90
6764;DHT22;47432;48.760;9.178;2023-04-24T15:37:01;12.20;99.90
6764;DHT22;47432;48.760;9.178;2023-04-24T15:39:27;11.90;99.90
6764;DHT22;47432;48.760;9.178;2023-04-24T15:41:55;11.90;99.90
6764;DHT22;47432;48.760;9.178;2023-04-24T15:44:21;11.90;99.90
6764;DHT22;47432;48.760;9.178;2023-04-24T15:46:47;11.70;99.90
6764;DHT22;47432;48.760;9.178;2023-04-24T15:49:13;11.60;99.90
6764;DHT22;47432;48.760;9.178;2023-04-24T15:51:39;11.50;99.90
6764;DHT22;47432;48.760;9.178;2023-04-24T15:54:05;11.70;99.90
6764;DHT22;47432;48.760;9.178;2023-04-24T15:56:30;11.90;99.90
6764;DHT22;47432;48.760;9.178;2023-04-24T15:58:56;12.00;99.90
6764;DHT22;47432;48.760;9.178;2023-04-24T16:01:22;12.10;99.90
6764;DHT22;47432;48.760;9.178;2023-04-24T16:03:49;13.40;99.90